Time;durP1;ratioP1;P1;durP2;ratioP2;P2;SDS_P1;SDS_P2;PMS_P1;PMS_P2;Temp;Humidity;BMP_temperature;BMP_pressure;BME280_temperature;BME280_humidity;BME280_pressure;Samples;Min_cycle;Max_cycle;Signal;HPM_P1;HPM_P2
2022/02/09 00:04:33;;;;;;;14.27;9.73;;;9.20;99.90;;;;;;5092452;28;20451;-85
2022/02/09 00:09:24;;;;;;;15.07;9.67;;;9.00;99.90;;;;;;5092179;28;20918;-84
2022/02/09 00:14:40;;;;;;;15.90;11.47;;;9.10;99.90;;;;;;5092065;28;20647;-84
2022/02/09 00:17:25;;;;;;;17.90;12.03;;;9.00;99.90;;;;;;5092148;28;20413;-84
2022/02/09 00:30:42;;;;;;;20.23;13.20;;;9.10;99.90;;;;;;5092170;28;20420;-84
2022/02/09 01:56:55;;;;;;;17.13;11.90;;;8.90;99.90;;;;;;5074541;28;20414;-84
2022/02/09 01:59:21;;;;;;;25.90;15.43;;;8.90;99.90;;;;;;5074536;28;20531;-84
2022/02/09 02:01:50;;;;;;;19.30;13.77;;;8.80;99.90;;;;;;5056720;28;20440;-85
2022/02/09 02:04:15;;;;;;;19.73;13.23;;;8.90;99.90;;;;;;5056471;28;20171;-85
2022/02/09 02:06:48;;;;;;;25.63;14.83;;;8.80;99.90;;;;;;5073865;28;20478;-84
2022/02/09 02:09:15;;;;;;;22.20;14.53;;;8.90;99.90;;;;;;5074314;28;20172;-84
2022/02/09 02:11:49;;;;;;;18.80;12.63;;;8.80;99.90;;;;;;5056216;28;20477;-84
2022/02/09 02:16:52;;;;;;;16.13;12.40;;;8.80;99.90;;;;;;5074289;28;20466;-85
2022/02/09 02:22:01;;;;;;;15.83;10.60;;;8.80;99.90;;;;;;5073737;28;20414;-84
2022/02/09 02:24:45;;;;;;;18.97;10.93;;;8.80;99.90;;;;;;5074029;28;20407;-84
2022/02/09 02:27:34;;;;;;;14.00;9.27;;;8.80;99.90;;;;;;5074053;28;20433;-85
2022/02/09 02:30:41;;;;;;;12.03;8.27;;;8.80;99.90;;;;;;5074169;28;20457;-84
2022/02/09 02:36:21;;;;;;;11.20;8.33;;;8.80;99.90;;;;;;5074260;28;20413;-84
2022/02/09 02:42:12;;;;;;;16.30;9.73;;;8.80;99.90;;;;;;5074313;28;21002;-89
2022/02/09 02:44:50;;;;;;;12.97;9.43;;;8.90;99.90;;;;;;5073439;28;20180;-85
2022/02/09 02:47:18;;;;;;;18.13;12.40;;;8.70;99.90;;;;;;5073532;28;20418;-89
2022/02/09 03:08:11;;;;;;;18.97;11.87;;;8.70;99.90;;;;;;5073537;28;20418;-88
2022/02/09 03:09:19;;;;;;;20.93;12.10;;;8.60;99.90;;;;;;5073726;28;20455;-85
2022/02/09 03:12:03;;;;;;;17.43;12.77;;;8.60;99.90;;;;;;5073169;28;20457;-85
2022/02/09 03:14:52;;;;;;;18.93;12.83;;;8.60;99.90;;;;;;5073063;28;20868;-85
2022/02/09 03:17:23;;;;;;;17.07;12.50;;;8.60;99.90;;;;;;5072322;28;20448;-85
2022/02/09 03:20:03;;;;;;;18.33;12.50;;;8.60;99.90;;;;;;5054928;28;20851;-85
2022/02/09 03:22:50;;;;;;;18.93;11.73;;;8.60;99.90;;;;;;5054405;28;20420;-85
2022/02/09 03:30:51;;;;;;;15.60;13.50;;;8.50;99.90;;;;;;5072617;28;20428;-84
2022/02/09 03:49:42;;;;;;;18.37;11.70;;;8.50;99.90;;;;;;5072661;28;20413;-84
2022/02/09 03:54:51;;;;;;;22.27;12.80;;;8.50;99.90;;;;;;5072542;28;20430;-84
2022/02/09 03:57:26;;;;;;;17.33;11.07;;;8.40;99.90;;;;;;5072407;28;20489;-84
2022/02/09 03:59:52;;;;;;;20.00;12.43;;;8.50;99.90;;;;;;5054515;28;20526;-85
2022/02/09 04:02:18;;;;;;;22.20;13.93;;;8.40;99.90;;;;;;5072438;28;20451;-85
2022/02/09 04:04:48;;;;;;;20.10;13.37;;;8.50;99.90;;;;;;5072452;28;20207;-85
2022/02/09 04:07:13;;;;;;;26.10;14.90;;;8.40;99.90;;;;;;5072087;28;20172;-84
2022/02/09 04:09:45;;;;;;;26.47;14.60;;;8.40;99.90;;;;;;5072353;28;20421;-85
2022/02/09 04:15:13;;;;;;;21.53;13.13;;;8.40;99.90;;;;;;5076500;28;20555;-84
2022/02/09 04:18:05;;;;;;;22.67;14.13;;;8.50;99.90;;;;;;5076570;28;20758;-84
2022/02/09 04:37:03;;;;;;;26.67;14.00;;;8.40;99.90;;;;;;5076124;28;20412;-84
2022/02/09 04:39:35;;;;;;;22.33;12.80;;;8.40;99.90;;;;;;5076133;28;20496;-85
2022/02/09 04:42:31;;;;;;;27.47;12.20;;;8.40;99.90;;;;;;5076023;28;20445;-85
2022/02/09 04:45:15;;;;;;;23.20;14.10;;;8.40;99.90;;;;;;5075229;28;20417;-84
2022/02/09 04:53:00;;;;;;;20.90;13.47;;;8.40;99.90;;;;;;5075800;28;20472;-88
2022/02/09 04:58:00;;;;;;;19.80;12.63;;;8.40;99.90;;;;;;5076012;28;20889;-85
2022/02/09 05:00:39;;;;;;;23.30;11.53;;;8.40;99.90;;;;;;5076210;28;20414;-89
2022/02/09 05:03:37;;;;;;;27.53;15.03;;;8.40;99.90;;;;;;5076206;28;20408;-91
2022/02/09 05:22:48;;;;;;;20.57;11.03;;;8.50;99.90;;;;;;5035153;28;20421;-89
2022/02/09 05:28:14;;;;;;;20.23;12.53;;;8.70;99.90;;;;;;5025684;28;20843;-84
2022/02/09 05:30:44;;;;;;;17.60;12.37;;;8.60;99.90;;;;;;5085147;28;20454;-88
2022/02/09 05:33:09;;;;;;;17.53;12.50;;;8.60;99.90;;;;;;5080378;28;20472;-85
2022/02/09 05:35:35;;;;;;;18.70;10.40;;;8.50;99.90;;;;;;5075304;28;20890;-84
2022/02/09 05:38:01;;;;;;;24.93;13.40;;;8.50;99.90;;;;;;5075713;28;20254;-85
2022/02/09 05:40:27;;;;;;;20.30;12.47;;;8.50;99.90;;;;;;5075239;28;20163;-85
2022/02/09 05:42:53;;;;;;;19.10;10.97;;;8.50;99.90;;;;;;5058211;28;20774;-88
2022/02/09 05:45:21;;;;;;;20.40;11.10;;;8.60;99.90;;;;;;5074828;28;20416;-89
2022/02/09 05:51:30;;;;;;;19.03;10.70;;;8.50;99.90;;;;;;5074529;28;21027;-85
2022/02/09 05:53:24;;;;;;;18.37;11.90;;;8.50;99.90;;;;;;5077128;28;20484;-85
2022/02/09 05:55:54;;;;;;;18.53;11.00;;;8.50;99.90;;;;;;5095358;28;21090;-85
2022/02/09 06:00:56;;;;;;;16.30;10.27;;;8.50;99.90;;;;;;5095111;28;20431;-88
2022/02/09 06:03:21;;;;;;;21.83;12.90;;;8.60;99.90;;;;;;5077056;28;20409;-88
2022/02/09 06:05:47;;;;;;;19.70;11.87;;;8.40;99.90;;;;;;5094551;28;20551;-88
2022/02/09 06:08:13;;;;;;;21.57;11.20;;;8.40;99.90;;;;;;5094800;28;20167;-88
2022/02/09 06:10:40;;;;;;;19.57;11.43;;;8.60;99.90;;;;;;5094805;28;20164;-84
2022/02/09 06:13:19;;;;;;;18.60;11.13;;;8.40;99.90;;;;;;5076729;28;20207;-88
2022/02/09 06:21:02;;;;;;;16.93;10.80;;;8.30;99.90;;;;;;5094909;28;20400;-86
2022/02/09 06:23:29;;;;;;;18.70;10.73;;;8.40;99.90;;;;;;5076714;28;20417;-85
2022/02/09 06:25:55;;;;;;;18.00;12.07;;;8.30;99.90;;;;;;5094674;28;20466;-86
2022/02/09 06:28:21;;;;;;;20.27;11.97;;;8.30;99.90;;;;;;5075545;28;20464;-84
2022/02/09 06:30:47;;;;;;;18.10;9.23;;;8.30;99.90;;;;;;5093362;28;20416;-84
2022/02/09 06:33:13;;;;;;;19.00;12.27;;;8.20;99.90;;;;;;5093527;28;20468;-84
2022/02/09 06:35:39;;;;;;;19.40;11.23;;;8.20;99.90;;;;;;5074146;28;20228;-88
2022/02/09 06:38:05;;;;;;;20.23;12.30;;;8.20;99.90;;;;;;5094134;28;20416;-84
2022/02/09 06:40:30;;;;;;;22.00;11.90;;;8.20;99.90;;;;;;5076321;28;20170;-86
2022/02/09 06:42:56;;;;;;;25.27;12.23;;;8.10;99.90;;;;;;5075843;28;20181;-84
2022/02/09 06:45:28;;;;;;;19.40;12.20;;;8.10;99.90;;;;;;5075984;28;20171;-84
2022/02/09 06:47:54;;;;;;;21.77;12.60;;;8.10;99.90;;;;;;5093925;28;20171;-85
2022/02/09 06:50:31;;;;;;;22.07;12.83;;;8.20;99.90;;;;;;5093749;28;20411;-83
2022/02/09 06:53:36;;;;;;;21.77;12.40;;;8.20;99.90;;;;;;5093847;28;20207;-84
2022/02/09 06:55:57;;;;;;;20.27;11.67;;;8.20;99.90;;;;;;5090660;28;20412;-84
2022/02/09 06:58:56;;;;;;;18.37;11.30;;;8.20;99.90;;;;;;5093911;28;20410;-85
2022/02/09 07:01:13;;;;;;;21.90;12.40;;;8.20;99.90;;;;;;5092392;28;20420;-86
2022/02/09 07:03:39;;;;;;;22.27;12.40;;;8.30;99.90;;;;;;5093839;28;20419;-89
2022/02/09 07:06:06;;;;;;;18.57;9.37;;;7.50;99.90;;;;;;5075553;28;20556;-84
2022/02/09 07:08:32;;;;;;;17.40;11.30;;;8.70;99.90;;;;;;5093720;28;20205;-85
2022/02/09 07:10:57;;;;;;;18.90;11.27;;;8.30;99.90;;;;;;5093979;28;20409;-86
2022/02/09 07:13:23;;;;;;;14.63;10.90;;;8.30;99.90;;;;;;5075753;28;20872;-85
2022/02/09 07:15:52;;;;;;;19.50;11.13;;;8.10;99.90;;;;;;5094032;28;20272;-87
2022/02/09 07:18:18;;;;;;;18.30;10.80;;;8.20;99.90;;;;;;5075721;28;20224;-85
2022/02/09 07:23:32;;;;;;;18.33;13.20;;;8.20;99.90;;;;;;5093340;28;20435;-85
2022/02/09 07:26:06;;;;;;;18.50;10.93;;;8.20;99.90;;;;;;5075331;28;20429;-88
2022/02/09 07:28:32;;;;;;;17.53;10.20;;;8.20;99.90;;;;;;5075250;28;20805;-86
2022/02/09 07:30:58;;;;;;;18.03;11.50;;;8.10;99.90;;;;;;5075703;28;20786;-88
2022/02/09 07:33:25;;;;;;;20.13;12.27;;;8.20;99.90;;;;;;5075577;28;20629;-87
2022/02/09 07:35:51;;;;;;;17.90;10.77;;;8.20;99.90;;;;;;5093176;28;20502;-88
2022/02/09 07:38:16;;;;;;;19.93;12.47;;;8.30;99.90;;;;;;5093688;28;20451;-88
2022/02/09 07:40:45;;;;;;;15.40;9.77;;;8.30;99.90;;;;;;5079491;28;20178;-87
2022/02/09 07:43:19;;;;;;;16.47;10.13;;;8.30;99.90;;;;;;5077239;28;20174;-88
2022/02/09 07:50:43;;;;;;;15.57;9.47;;;8.40;99.90;;;;;;5097146;28;20210;-87
2022/02/09 07:55:47;;;;;;;14.00;9.27;;;8.40;99.90;;;;;;5097756;28;20913;-87
2022/02/09 07:58:15;;;;;;;19.30;10.83;;;8.50;99.90;;;;;;5097977;28;20416;-91
2022/02/09 08:00:42;;;;;;;22.60;12.00;;;8.50;99.90;;;;;;5097763;28;20253;-86
2022/02/09 08:03:18;;;;;;;20.63;11.93;;;8.50;99.90;;;;;;5098043;28;20452;-90
2022/02/09 08:05:44;;;;;;;12.97;9.80;;;8.50;99.90;;;;;;5097544;28;20404;-89
2022/02/09 08:08:09;;;;;;;13.33;9.70;;;8.50;99.90;;;;;;5079690;28;20470;-86
2022/02/09 08:10:45;;;;;;;12.90;8.90;;;8.50;99.90;;;;;;5079911;28;20210;-85
2022/02/09 08:34:08;;;;;;;12.70;8.47;;;8.60;99.90;;;;;;5099272;28;20430;-89
2022/02/09 08:36:34;;;;;;;8.30;6.73;;;8.70;99.90;;;;;;5078866;28;20838;-89
2022/02/09 08:38:59;;;;;;;10.20;7.40;;;8.70;99.90;;;;;;5097276;28;20474;-91
2022/02/09 08:41:25;;;;;;;12.20;6.80;;;8.70;99.90;;;;;;5097219;28;20455;-90
2022/02/09 08:43:51;;;;;;;9.83;7.63;;;8.70;99.90;;;;;;5080214;28;20181;-87
2022/02/09 08:46:18;;;;;;;8.63;6.23;;;8.80;99.90;;;;;;5079426;28;20410;-92
2022/02/09 08:48:43;;;;;;;12.50;6.67;;;8.80;99.90;;;;;;5097858;28;20177;-88
2022/02/09 08:51:10;;;;;;;12.40;8.17;;;8.80;99.90;;;;;;5081042;28;20442;-92
2022/02/09 08:53:35;;;;;;;9.00;6.23;;;8.80;99.90;;;;;;5079168;28;20479;-87
2022/02/09 08:56:03;;;;;;;11.07;5.93;;;8.80;99.90;;;;;;5096833;28;20167;-91
2022/02/09 08:58:28;;;;;;;11.77;6.20;;;8.80;99.90;;;;;;5078046;28;20179;-90
2022/02/09 09:01:06;;;;;;;10.27;6.27;;;8.90;99.90;;;;;;5078760;28;20420;-90
2022/02/09 09:03:40;;;;;;;7.30;5.53;;;9.00;99.90;;;;;;5078942;28;20274;-90
2022/02/09 09:06:08;;;;;;;8.40;6.00;;;9.10;99.90;;;;;;5096076;28;20411;-89
2022/02/09 09:08:39;;;;;;;8.47;5.80;;;9.10;99.90;;;;;;5078816;28;20785;-87
2022/02/09 09:11:24;;;;;;;7.90;5.60;;;9.10;99.90;;;;;;5096631;28;20428;-89
2022/02/09 09:58:01;;;;;;;8.27;6.00;;;9.60;99.90;;;;;;5096249;28;20754;-88
2022/02/09 09:58:04;;;;;;;11.47;6.70;;;9.70;99.90;;;;;;5095727;28;20516;-89
2022/02/09 10:04:37;;;;;;;7.97;5.30;;;10.00;99.90;;;;;;5095405;28;20502;-88
2022/02/09 10:35:29;;;;;;;8.37;6.00;;;10.10;99.90;;;;;;5094562;28;20418;-87
2022/02/09 10:37:59;;;;;;;6.67;5.23;;;10.10;99.90;;;;;;5094632;28;20412;-87
2022/02/09 10:40:41;;;;;;;7.77;6.00;;;10.10;99.90;;;;;;5076328;28;20926;-87
2022/02/09 10:43:33;;;;;;;9.70;5.07;;;10.20;99.90;;;;;;5094432;28;20967;-88
2022/02/09 10:46:13;;;;;;;8.13;5.97;;;10.00;99.90;;;;;;5094575;28;20471;-87
2022/02/09 10:48:54;;;;;;;7.97;6.37;;;9.90;99.90;;;;;;5076072;28;20414;-87
2022/02/09 10:51:40;;;;;;;13.10;6.63;;;10.00;99.90;;;;;;5094008;28;20414;-87
2022/02/09 10:54:18;;;;;;;9.30;6.20;;;10.00;99.90;;;;;;5094292;28;20422;-87
2022/02/09 10:56:47;;;;;;;8.60;6.00;;;10.20;99.90;;;;;;5094141;28;20808;-88
2022/02/09 10:59:16;;;;;;;7.63;5.60;;;10.60;99.90;;;;;;5093839;28;20414;-85
2022/02/09 11:01:43;;;;;;;10.97;5.43;;;10.90;99.90;;;;;;5075701;28;20945;-87
2022/02/09 11:04:09;;;;;;;9.47;5.47;;;11.10;99.90;;;;;;5075891;28;20954;-87
2022/02/09 11:06:37;;;;;;;9.13;5.73;;;10.80;99.90;;;;;;5093534;28;20504;-87
2022/02/09 11:09:06;;;;;;;8.40;5.80;;;10.70;99.90;;;;;;5093929;28;20547;-87
2022/02/09 11:11:35;;;;;;;6.87;5.10;;;11.00;99.90;;;;;;5093824;28;20415;-87
2022/02/09 11:14:01;;;;;;;6.13;3.50;;;10.90;99.90;;;;;;5075586;28;20543;-88
2022/02/09 11:16:28;;;;;;;5.80;4.60;;;10.60;99.90;;;;;;5075577;28;20408;-87
2022/02/09 11:18:57;;;;;;;5.87;4.73;;;10.40;99.90;;;;;;5075872;28;20636;-87
2022/02/09 11:21:37;;;;;;;7.20;5.97;;;10.30;99.90;;;;;;5074421;28;20477;-87
2022/02/09 11:24:15;;;;;;;6.87;4.17;;;10.10;99.90;;;;;;5093300;28;20906;-88
2022/02/09 11:27:08;;;;;;;7.37;5.27;;;10.10;99.90;;;;;;5093626;28;20446;-88
2022/02/09 11:29:47;;;;;;;5.80;4.07;;;10.00;99.90;;;;;;5093729;28;20463;-86
2022/02/09 11:32:24;;;;;;;7.73;4.50;;;10.00;99.90;;;;;;5076004;28;20482;-90
2022/02/09 11:34:50;;;;;;;4.57;3.80;;;10.00;99.90;;;;;;5075560;28;20440;-89
2022/02/09 11:37:38;;;;;;;7.03;3.00;;;10.00;99.90;;;;;;5075879;28;20411;-89
2022/02/09 11:40:35;;;;;;;5.13;2.90;;;9.90;99.90;;;;;;5074951;28;20427;-88
2022/02/09 11:43:43;;;;;;;5.70;3.60;;;9.90;99.90;;;;;;5093674;28;20955;-89
2022/02/09 11:58:03;;;;;;;4.53;2.97;;;10.10;99.90;;;;;;5094210;28;20506;-89
2022/02/09 12:13:45;;;;;;;4.50;2.80;;;9.90;99.90;;;;;;5083177;28;20477;-89
2022/02/09 12:16:37;;;;;;;4.70;2.70;;;9.90;99.90;;;;;;5075466;28;20414;-89
2022/02/09 12:19:07;;;;;;;4.80;2.27;;;9.90;99.90;;;;;;5062816;28;20432;-88
2022/02/09 12:21:59;;;;;;;4.97;3.47;;;9.90;99.90;;;;;;5075281;28;20493;-89
2022/02/09 12:24:29;;;;;;;4.17;2.63;;;9.90;99.90;;;;;;5075470;28;20419;-89
2022/02/09 12:27:02;;;;;;;3.83;2.50;;;9.90;99.90;;;;;;5075229;28;20414;-89
2022/02/09 12:29:40;;;;;;;4.00;3.30;;;9.90;99.90;;;;;;5093325;28;20510;-89
2022/02/09 12:32:30;;;;;;;4.53;2.20;;;9.90;99.90;;;;;;5075436;28;20457;-89
2022/02/09 12:35:01;;;;;;;3.33;2.10;;;10.00;99.90;;;;;;5095684;28;20420;-89
2022/02/09 12:37:29;;;;;;;4.50;2.70;;;10.00;99.90;;;;;;5079158;28;20414;-89
2022/02/09 12:40:03;;;;;;;3.70;2.90;;;9.90;99.90;;;;;;5079100;28;20406;-90
2022/02/09 12:42:32;;;;;;;4.97;2.70;;;10.00;99.90;;;;;;5079076;28;20470;-89
2022/02/09 12:45:07;;;;;;;8.53;2.90;;;10.10;99.90;;;;;;5097179;28;20410;-88
2022/02/09 12:47:38;;;;;;;5.50;3.00;;;10.10;99.90;;;;;;5097337;28;20409;-89
2022/02/09 12:50:14;;;;;;;6.23;4.13;;;10.10;99.90;;;;;;5078443;28;20453;-89
2022/02/09 12:52:42;;;;;;;4.37;2.40;;;10.10;99.90;;;;;;5097249;28;20790;-90
2022/02/09 12:55:12;;;;;;;3.83;2.10;;;10.10;99.90;;;;;;5078619;28;20431;-89
2022/02/09 12:57:51;;;;;;;5.97;2.60;;;10.10;99.90;;;;;;5097059;28;20410;-89
2022/02/09 13:00:29;;;;;;;4.57;2.77;;;10.10;99.90;;;;;;5096622;28;20398;-89
2022/02/09 13:02:57;;;;;;;2.77;1.60;;;10.00;99.90;;;;;;5078829;28;20413;-90
2022/02/09 13:05:25;;;;;;;3.00;2.20;;;10.00;99.90;;;;;;5078235;28;20915;-89
2022/02/09 13:07:59;;;;;;;3.03;1.80;;;9.90;99.90;;;;;;5096920;28;20417;-89
2022/02/09 13:10:37;;;;;;;2.40;1.57;;;9.90;99.90;;;;;;5078851;28;20505;-90
2022/02/09 13:13:27;;;;;;;4.80;2.80;;;9.90;99.90;;;;;;5078764;28;20534;-89
2022/02/09 13:16:06;;;;;;;2.87;1.50;;;9.90;99.90;;;;;;5096308;28;20410;-89
2022/02/09 13:22:27;;;;;;;2.23;1.10;;;9.90;99.90;;;;;;5096217;28;20413;-89
2022/02/09 14:02:56;;;;;;;1.60;0.60;;;9.80;99.90;;;;;;5096099;28;20428;-88
2022/02/09 14:47:16;;;;;;;2.70;1.17;;;9.40;99.90;;;;;;5094934;28;20532;-89
2022/02/09 14:47:37;;;;;;;3.03;1.30;;;9.30;99.90;;;;;;5094635;28;20792;-88
2022/02/09 14:52:52;;;;;;;2.70;1.27;;;9.40;99.90;;;;;;5094845;28;20511;-88
2022/02/09 14:57:53;;;;;;;2.57;1.60;;;9.30;99.90;;;;;;5093988;28;20564;-89
2022/02/09 15:00:22;;;;;;;4.93;2.90;;;9.40;99.90;;;;;;5076486;28;20179;-89
2022/02/09 15:03:04;;;;;;;2.83;1.90;;;9.30;99.90;;;;;;5076573;28;20530;-89
2022/02/09 15:11:02;;;;;;;3.40;2.00;;;9.30;99.90;;;;;;5094971;28;21067;-90
2022/02/09 15:16:09;;;;;;;4.60;3.03;;;9.30;99.90;;;;;;5094801;28;20494;-89
2022/02/09 15:23:26;;;;;;;5.17;3.00;;;9.20;99.90;;;;;;5094298;28;20196;-89
2022/02/09 15:25:54;;;;;;;3.97;2.70;;;9.10;99.90;;;;;;5075820;28;20182;-89
2022/02/09 15:28:19;;;;;;;3.10;2.57;;;9.10;99.90;;;;;;5093714;28;20222;-89
2022/02/09 15:31:01;;;;;;;4.80;3.07;;;9.10;99.90;;;;;;5075851;28;20413;-89
2022/02/09 15:33:35;;;;;;;4.40;2.97;;;9.20;99.90;;;;;;5075627;28;20215;-90
2022/02/09 15:36:01;;;;;;;6.00;3.67;;;9.20;99.90;;;;;;5093562;28;20403;-89
2022/02/09 15:38:37;;;;;;;4.57;2.67;;;9.10;99.90;;;;;;5075294;28;20987;-89
2022/02/09 15:41:15;;;;;;;4.00;2.60;;;9.10;99.90;;;;;;5071632;28;20182;-88
2022/02/09 16:05:43;;;;;;;3.30;2.60;;;9.00;99.90;;;;;;5088797;28;20558;-89
2022/02/09 16:08:34;;;;;;;7.00;2.60;;;9.00;99.90;;;;;;5058203;28;20784;-89
2022/02/09 16:16:42;;;;;;;4.37;2.70;;;8.90;99.90;;;;;;5097190;28;20456;-89
2022/02/09 16:22:10;;;;;;;4.57;3.30;;;8.90;99.90;;;;;;5097591;28;20924;-95
2022/02/09 16:46:18;;;;;;;2.70;1.73;;;8.80;99.90;;;;;;5036921;28;20537;-90
2022/02/09 16:48:59;;;;;;;3.17;0.73;;;8.70;99.90;;;;;;5035783;28;20447;-92
2022/02/09 16:51:26;;;;;;;2.27;1.03;;;8.70;99.90;;;;;;5036211;28;20417;-88
2022/02/09 16:54:09;;;;;;;2.37;1.00;;;8.70;99.90;;;;;;5036039;28;20573;-86
2022/02/09 17:20:54;;;;;;;6.37;3.20;;;8.40;99.90;;;;;;5049038;28;20482;-91
2022/02/09 17:23:20;;;;;;;9.30;1.77;;;8.40;99.90;;;;;;5039878;28;20427;-87
2022/02/09 17:25:45;;;;;;;5.93;2.17;;;8.40;99.90;;;;;;5037902;28;20432;-87
2022/02/09 17:28:15;;;;;;;5.87;2.57;;;8.40;99.90;;;;;;5067283;28;20207;-91
2022/02/09 17:33:15;;;;;;;8.10;2.10;;;8.30;99.90;;;;;;5077552;28;20482;-90
2022/02/09 17:35:51;;;;;;;9.57;1.90;;;8.30;99.90;;;;;;5075520;28;20777;-88
2022/02/09 17:38:35;;;;;;;7.90;2.50;;;8.40;99.90;;;;;;5075469;28;20772;-86
2022/02/09 17:57:35;;;;;;;4.03;2.00;;;8.20;99.90;;;;;;5053698;28;20988;-86
2022/02/09 18:00:18;;;;;;;7.93;2.77;;;8.20;99.90;;;;;;5110831;22;20492;-86
2022/02/09 18:02:51;;;;;;;9.63;3.37;;;8.20;99.90;;;;;;5077069;28;20409;-87
2022/02/09 18:05:23;;;;;;;9.70;3.20;;;8.20;99.90;;;;;;5059309;28;20542;-85
2022/02/09 18:07:54;;;;;;;10.97;3.53;;;8.20;99.90;;;;;;5076896;28;20436;-86
2022/02/09 18:10:45;;;;;;;4.90;1.90;;;8.20;99.90;;;;;;5078154;28;20437;-89
2022/02/09 18:29:34;;;;;;;6.77;1.97;;;8.10;99.90;;;;;;5079837;28;20813;-92
2022/02/09 18:42:53;;;;;;;6.33;2.50;;;8.00;99.90;;;;;;5080868;28;20456;-89
2022/02/09 19:04:30;;;;;;;8.13;2.73;;;7.60;99.90;;;;;;5078530;28;20422;-87
2022/02/09 19:15:05;;;;;;;9.97;4.90;;;7.60;99.90;;;;;;5073869;28;20466;-88
2022/02/09 19:17:46;;;;;;;8.50;4.00;;;7.60;99.90;;;;;;5074263;28;20413;-88
2022/02/09 19:20:28;;;;;;;6.97;3.83;;;7.70;99.90;;;;;;5055761;28;20428;-87
2022/02/09 19:31:09;;;;;;;10.40;4.10;;;7.70;99.90;;;;;;5075282;28;20433;-87
2022/02/09 19:47:05;;;;;;;11.77;4.83;;;7.70;99.90;;;;;;5073111;28;20685;-88
2022/02/09 19:57:13;;;;;;;17.40;5.93;;;7.70;99.90;;;;;;5073190;28;20409;-89
2022/02/09 19:59:40;;;;;;;13.53;5.73;;;7.70;99.90;;;;;;5072707;28;20491;-88
2022/02/09 20:02:07;;;;;;;14.20;5.60;;;7.70;99.90;;;;;;5073906;28;20399;-93
2022/02/09 20:04:34;;;;;;;12.13;5.73;;;7.70;99.90;;;;;;5056658;28;20930;-90
2022/02/09 20:07:00;;;;;;;9.60;5.07;;;7.70;99.90;;;;;;5074402;28;20759;-92
2022/02/09 20:09:26;;;;;;;7.90;4.97;;;7.70;99.90;;;;;;5056815;28;20482;-91
2022/02/09 20:11:54;;;;;;;13.73;6.27;;;7.70;99.90;;;;;;5057639;28;20446;-91
2022/02/09 20:14:20;;;;;;;16.30;6.17;;;7.70;99.90;;;;;;5056861;28;20473;-95
2022/02/09 20:16:46;;;;;;;14.20;5.13;;;7.70;99.90;;;;;;5057180;28;20515;-92
2022/02/09 20:19:12;;;;;;;7.60;3.90;;;7.70;99.90;;;;;;5074424;28;20463;-90
2022/02/09 20:21:38;;;;;;;8.40;4.53;;;7.70;99.90;;;;;;5056148;28;20168;-92
2022/02/09 20:24:07;;;;;;;12.90;5.93;;;7.70;99.90;;;;;;5073642;28;20555;-93
2022/02/09 20:26:32;;;;;;;13.07;5.97;;;7.70;99.90;;;;;;5074655;28;20441;-93
2022/02/09 20:29:06;;;;;;;13.23;6.27;;;7.70;99.90;;;;;;5055307;28;20549;-89
2022/02/09 20:31:40;;;;;;;16.47;5.20;;;7.80;99.90;;;;;;5055073;28;20189;-89
2022/02/09 20:34:16;;;;;;;9.73;3.67;;;7.70;99.90;;;;;;5055070;28;20468;-91
2022/02/09 20:36:43;;;;;;;12.10;4.43;;;7.70;99.90;;;;;;5073412;28;20757;-89
2022/02/09 20:39:11;;;;;;;12.73;4.10;;;7.70;99.90;;;;;;5054976;28;20764;-88
2022/02/09 20:41:38;;;;;;;7.13;3.67;;;7.70;99.90;;;;;;5072954;28;20496;-89
2022/02/09 20:44:19;;;;;;;16.93;4.23;;;7.60;99.90;;;;;;5055521;28;20521;-91
2022/02/09 20:46:45;;;;;;;10.37;4.10;;;7.60;99.90;;;;;;5055002;28;20422;-89
2022/02/09 20:49:10;;;;;;;9.50;3.50;;;7.60;99.90;;;;;;5055203;28;20421;-91
2022/02/09 20:51:36;;;;;;;13.90;5.07;;;7.60;99.90;;;;;;5073424;28;20251;-94
2022/02/09 20:54:02;;;;;;;9.20;4.40;;;7.60;99.90;;;;;;5073384;28;20203;-90
2022/02/09 20:56:27;;;;;;;7.27;2.90;;;7.60;99.90;;;;;;5076414;28;20246;-92
2022/02/09 20:59:00;;;;;;;11.77;4.57;;;7.60;99.90;;;;;;5076029;28;20448;-88
2022/02/09 21:01:54;;;;;;;10.10;3.17;;;7.60;99.90;;;;;;5076180;28;20171;-89
2022/02/09 21:04:23;;;;;;;12.33;4.10;;;7.60;99.90;;;;;;5059012;28;20420;-90
2022/02/09 21:10:06;;;;;;;16.60;2.73;;;7.50;99.90;;;;;;5055589;28;20430;-88
2022/02/09 21:12:28;;;;;;;18.60;3.63;;;7.50;99.90;;;;;;5046918;28;20190;-87
2022/02/09 21:17:37;;;;;;;15.30;4.33;;;7.40;99.90;;;;;;5055030;28;20411;-87
2022/02/09 21:20:40;;;;;;;12.53;4.20;;;7.40;99.90;;;;;;5054891;28;20177;-87
2022/02/09 21:23:27;;;;;;;7.20;3.70;;;7.40;99.90;;;;;;5037313;28;20410;-88
2022/02/09 21:26:30;;;;;;;10.90;3.40;;;7.40;99.90;;;;;;5055028;28;20413;-87
2022/02/09 21:31:47;;;;;;;6.80;2.60;;;7.40;99.90;;;;;;5055205;28;20817;-89
2022/02/09 21:52:02;;;;;;;8.13;3.57;;;7.40;99.90;;;;;;5054751;28;20438;-87
2022/02/09 21:53:45;;;;;;;21.93;5.07;;;7.40;99.90;;;;;;5054424;28;20477;-87
2022/02/09 21:56:20;;;;;;;9.30;3.67;;;7.30;99.90;;;;;;5054619;28;20417;-86
2022/02/09 22:27:45;;;;;;;7.83;3.70;;;6.60;99.90;;;;;;5074185;28;20412;-84
2022/02/09 22:56:46;;;;;;;9.07;3.50;;;6.30;99.90;;;;;;5073806;28;20450;-85
2022/02/09 22:59:21;;;;;;;8.10;3.57;;;6.20;99.90;;;;;;5073222;28;20494;-85
2022/02/09 23:01:53;;;;;;;19.53;4.60;;;6.10;99.90;;;;;;5055611;28;20264;-84
2022/02/09 23:07:10;;;;;;;8.40;3.50;;;6.00;99.90;;;;;;5072468;28;20432;-84
2022/02/09 23:09:52;;;;;;;11.07;4.43;;;5.90;99.90;;;;;;5118551;22;20929;-85
2022/02/09 23:18:00;;;;;;;8.90;4.10;;;5.80;99.90;;;;;;5092733;28;20178;-84
2022/02/09 23:26:54;;;;;;;9.80;4.37;;;5.70;99.90;;;;;;5022259;28;20426;-83
2022/02/09 23:54:09;;;;;;;12.50;6.77;;;5.50;99.90;;;;;;5077553;28;20855;-83
